This is the latest recevied weather packets stored in our database for station/object W0WC. If no packets are shown the sender has not sent any weather packets the latest 10 day(s).
| Time | Temp. | Humidity | Pressure | Rain* | Wind** | Luminosity | Snow |
|---|---|---|---|---|---|---|---|
| 1788538335 | 32.78° C | 51% | 1016.7 hPa | 0 mm | - | 586 W/m² | - |
| 1788538031 | 33.33° C | 51% | 1016.9 hPa | 0 mm | - | 569 W/m² | - |
| 1788537726 | 33.33° C | 49% | 1016.9 hPa | 0 mm | - | 563 W/m² | - |
| 1788537421 | 32.22° C | 53% | 1016.7 hPa | 0 mm | - | 557 W/m² | - |
| 1788537121 | 32.78° C | 53% | 1016.8 hPa | 0 mm | - | 543 W/m² | - |
| 1788536819 | 32.22° C | 54% | 1016.7 hPa | 0 mm | - | 530 W/m² | - |
| 1788536519 | 32.78° C | 53% | 1016.9 hPa | 0 mm | - | 523 W/m² | - |
| 1788536214 | 32.78° C | 55% | 1016.8 hPa | 0 mm | - | 511 W/m² | - |
| 1788535909 | 32.22° C | 55% | 1017 hPa | 0 mm | - | 496 W/m² | - |
| 1788535606 | 32.22° C | 56% | 1016.9 hPa | 0 mm | - | 485 W/m² | - |
| 1788535302 | 31.67° C | 57% | 1016.9 hPa | 0 mm | - | 468 W/m² | - |
| 1788535002 | 31.11° C | 57% | 1016.8 hPa | 0 mm | - | 457 W/m² | - |
| 1788534700 | 31.11° C | 58% | 1016.9 hPa | 0 mm | - | 439 W/m² | - |
| 1788534396 | 31.11° C | 59% | 1016.9 hPa | 0 mm | - | 424 W/m² | - |
| 1788534092 | 31.11° C | 58% | 1017 hPa | 0 mm | - | 415 W/m² | - |
| 1788533790 | 30.56° C | 60% | 1016.7 hPa | 0 mm | - | 396 W/m² | - |
| 1788533485 | 30.56° C | 60% | 1016.8 hPa | 0 mm | - | 383 W/m² | - |
| 1788533181 | 31.11° C | 59% | 1016.9 hPa | 0 mm | - | 258 W/m² | - |
| 1788532877 | 30.56° C | 60% | 1016.9 hPa | 0 mm | - | 353 W/m² | - |
| 1788532572 | 30.56° C | 60% | 1016.7 hPa | 0 mm | - | 339 W/m² | - |
| 1788532269 | 30.56° C | 60% | 1016.9 hPa | 0 mm | - | 323 W/m² | - |
| 1788531965 | 30° C | 62% | 1016.8 hPa | 0 mm | - | 301 W/m² | - |
| 1788531665 | 30° C | 62% | 1017 hPa | 0 mm | - | 287 W/m² | - |
| 1788531361 | 29.44° C | 63% | 1016.8 hPa | 0 mm | - | 277 W/m² | - |
| 1788531056 | 29.44° C | 63% | 1016.9 hPa | 0 mm | - | 263 W/m² | - |
* Rain latest hour (hover to see other rain measurements)
** Current wind speed in m/s (hover to see current wind gust speed)